createdAt,value
2019-04-25T00:02:18.517Z,15.63
2019-04-25T00:04:55.853Z,16.35
2019-04-25T00:07:26.583Z,15.38
2019-04-25T00:09:57.252Z,15.43
2019-04-25T00:12:27.952Z,16.23
2019-04-25T00:15:01.366Z,15.53
2019-04-25T00:17:35.191Z,15.72
2019-04-25T00:20:07.763Z,15.72
2019-04-25T00:22:43.707Z,16.02
2019-04-25T00:25:33.067Z,16.10
2019-04-25T00:28:07.500Z,15.75
2019-04-25T00:30:38.241Z,15.08
2019-04-25T00:33:08.999Z,15.83
2019-04-25T00:35:39.712Z,15.88
2019-04-25T00:38:12.393Z,14.78
2019-04-25T00:40:43.939Z,15.93
2019-04-25T00:43:15.524Z,15.10
2019-04-25T00:45:58.462Z,15.15
2019-04-25T00:48:29.136Z,15.85
2019-04-25T00:50:59.089Z,16.17
2019-04-25T00:53:29.773Z,16.10
2019-04-25T00:56:01.464Z,16.12
2019-04-25T00:58:37.326Z,15.85
2019-04-25T01:01:25.873Z,15.63
2019-04-25T01:03:57.629Z,15.80
2019-04-25T01:06:28.192Z,15.78
2019-04-25T01:09:02.459Z,17.87
2019-04-25T01:11:34.664Z,18.95
2019-04-25T01:14:05.558Z,20.05
2019-04-25T01:16:35.525Z,21.55
2019-04-25T01:19:10.138Z,22.37
2019-04-25T01:21:40.467Z,24.40
2019-04-25T01:24:11.348Z,24.77
2019-04-25T01:26:41.513Z,24.18
2019-04-25T01:29:16.102Z,23.47
2019-04-25T01:31:47.962Z,26.68
2019-04-25T01:34:20.377Z,32.60
2019-04-25T01:37:11.081Z,36.30
2019-04-25T01:39:44.175Z,40.23
2019-04-25T01:42:33.749Z,39.63
2019-04-25T01:45:07.805Z,36.60
2019-04-25T01:47:39.423Z,30.57
2019-04-25T01:50:10.489Z,25.45
2019-04-25T01:52:41.207Z,27.93
2019-04-25T01:55:13.711Z,24.20
2019-04-25T01:57:49.296Z,24.50
2019-04-25T02:00:23.487Z,23.10
2019-04-25T02:02:54.896Z,18.30
2019-04-25T02:05:28.416Z,16.07
2019-04-25T02:08:06.970Z,17.77
2019-04-25T02:10:37.189Z,16.85
2019-04-25T02:13:21.027Z,18.87
2019-04-25T02:15:53.914Z,21.27
2019-04-25T02:18:43.549Z,19.77
2019-04-25T02:21:15.623Z,19.07
2019-04-25T02:23:45.889Z,17.80
2019-04-25T02:26:18.535Z,19.70
2019-04-25T02:28:52.606Z,18.27
2019-04-25T02:31:24.681Z,18.37
2019-04-25T02:33:59.698Z,21.52
2019-04-25T02:36:27.523Z,18.20
2019-04-25T02:39:08.188Z,17.80
2019-04-25T02:41:38.659Z,17.55
2019-04-25T02:44:10.133Z,17.35
2019-04-25T02:46:42.093Z,17.15
2019-04-25T02:52:24.711Z,17.52
2019-04-25T02:54:56.921Z,18.10
2019-04-25T02:57:27.164Z,17.67
2019-04-25T02:59:58.335Z,18.07
2019-04-25T03:02:34.349Z,19.57
2019-04-25T03:05:08.104Z,20.82
2019-04-25T03:07:36.953Z,24.95
2019-04-25T03:10:10.557Z,22.00
2019-04-25T03:12:40.743Z,25.05
2019-04-25T03:15:11.467Z,24.92
2019-04-25T03:17:46.504Z,26.65
2019-04-25T03:20:30.468Z,26.93
2019-04-25T03:23:05.221Z,24.43
2019-04-25T03:25:34.964Z,24.40
2019-04-25T03:28:09.225Z,24.50
2019-04-25T03:30:39.273Z,24.00
2019-04-25T03:33:13.638Z,25.70
2019-04-25T03:35:43.150Z,25.60
2019-04-25T03:38:15.124Z,25.65
2019-04-25T03:40:45.652Z,25.95
2019-04-25T03:43:16.546Z,26.35
2019-04-25T03:45:47.207Z,23.32
2019-04-25T03:48:19.062Z,24.18
2019-04-25T03:50:50.821Z,24.00
2019-04-25T03:53:21.621Z,23.60
2019-04-25T03:55:51.770Z,19.57
2019-04-25T03:58:28.641Z,21.35
2019-04-25T04:00:59.289Z,21.40
2019-04-25T04:03:29.386Z,23.65
2019-04-25T04:06:00.103Z,26.20
2019-04-25T04:08:36.389Z,34.13
2019-04-25T04:11:07.451Z,32.67
2019-04-25T04:13:51.150Z,29.77
2019-04-25T04:16:23.839Z,25.63
2019-04-25T04:18:56.841Z,24.55
2019-04-25T04:21:37.864Z,24.80
2019-04-25T04:24:10.084Z,23.67
2019-04-25T04:26:40.152Z,23.67
2019-04-25T04:29:19.284Z,24.57
2019-04-25T04:31:49.256Z,23.80
2019-04-25T04:34:19.901Z,23.83
2019-04-25T04:36:49.848Z,22.63
2019-04-25T04:39:29.185Z,24.25
2019-04-25T04:41:59.147Z,31.73
2019-04-25T04:44:29.231Z,37.67
2019-04-25T04:46:59.269Z,43.52
2019-04-25T04:49:33.936Z,79.87
2019-04-25T04:52:06.544Z,31.68
2019-04-25T04:54:37.528Z,18.10
2019-04-25T04:57:18.729Z,17.23
2019-04-25T04:59:39.756Z,14.60
2019-04-25T05:02:11.628Z,12.43
2019-04-25T05:04:44.578Z,11.10
2019-04-25T05:07:33.882Z,10.85
2019-04-25T05:10:04.710Z,10.38
2019-04-25T05:12:35.435Z,10.00
2019-04-25T05:15:09.992Z,10.70
2019-04-25T05:17:40.578Z,10.80
2019-04-25T05:20:11.996Z,11.43
2019-04-25T05:22:44.641Z,11.45
2019-04-25T05:25:16.681Z,12.58
2019-04-25T05:27:59.585Z,11.78
2019-04-25T05:30:23.661Z,12.23
2019-04-25T05:32:54.843Z,11.93
2019-04-25T05:35:25.574Z,13.22
2019-04-25T05:38:00.339Z,13.13
2019-04-25T05:40:30.408Z,11.80
2019-04-25T05:43:08.015Z,12.77
2019-04-25T05:45:44.085Z,12.47
2019-04-25T05:48:36.771Z,12.23
2019-04-25T05:51:23.556Z,16.57
2019-04-25T05:54:01.336Z,16.12
2019-04-25T05:56:36.848Z,14.90
2019-04-25T05:59:10.848Z,16.10
2019-04-25T06:02:04.554Z,17.25
2019-04-25T06:04:39.486Z,17.45
2019-04-25T06:07:19.357Z,17.40
2019-04-25T06:09:55.278Z,18.35
2019-04-25T06:12:37.869Z,18.20
2019-04-25T06:15:11.050Z,19.15
2019-04-25T06:21:21.394Z,20.52
2019-04-25T06:24:13.315Z,21.05
2019-04-25T06:26:51.575Z,21.45
2019-04-25T06:32:47.445Z,21.47
2019-04-25T06:35:21.126Z,21.68
2019-04-25T06:38:10.255Z,23.35
2019-04-25T06:40:40.324Z,24.23
2019-04-25T06:43:10.457Z,23.35
2019-04-25T06:45:50.191Z,23.22
2019-04-25T06:48:40.371Z,24.60
2019-04-25T06:51:10.596Z,25.97
2019-04-25T06:53:43.680Z,24.15
2019-04-25T06:56:13.961Z,24.98
2019-04-25T06:58:50.296Z,25.10
2019-04-25T07:01:22.255Z,25.02
2019-04-25T07:03:53.996Z,26.97
2019-04-25T07:06:25.293Z,25.50
2019-04-25T07:09:03.974Z,26.20
2019-04-25T07:11:36.144Z,26.95
2019-04-25T07:21:45.797Z,26.37
2019-04-25T07:30:08.403Z,27.02
2019-04-25T07:35:27.886Z,25.68
2019-04-25T07:38:03.990Z,26.85
2019-04-25T07:40:57.531Z,25.08
2019-04-25T07:52:28.823Z,22.15
2019-04-25T07:58:07.718Z,24.18
2019-04-25T08:00:37.988Z,26.45
2019-04-25T08:09:10.513Z,24.77
2019-04-25T08:11:40.885Z,26.02
2019-04-25T08:14:14.415Z,29.00
2019-04-25T08:16:47.031Z,27.80
2019-04-25T08:19:18.302Z,26.77
2019-04-25T08:21:50.232Z,25.70
2019-04-25T08:24:20.397Z,26.73
2019-04-25T08:26:51.200Z,25.27
2019-04-25T08:29:23.660Z,26.07
2019-04-25T08:31:54.784Z,25.55
2019-04-25T08:34:25.310Z,23.87
2019-04-25T08:36:55.941Z,25.25
2019-04-25T08:39:26.459Z,25.37
2019-04-25T08:41:57.079Z,25.25
2019-04-25T08:44:27.628Z,25.32
2019-04-25T08:46:58.254Z,23.40
2019-04-25T08:49:38.841Z,21.60
2019-04-25T08:52:09.560Z,22.22
2019-04-25T08:54:47.345Z,22.50
2019-04-25T08:57:18.828Z,22.82
2019-04-25T08:59:52.864Z,21.52
2019-04-25T09:02:37.784Z,22.52
2019-04-25T09:05:18.957Z,22.30
2019-04-25T09:08:08.971Z,21.95
2019-04-25T09:10:40.128Z,20.40
2019-04-25T09:13:11.161Z,21.90
2019-04-25T09:15:41.873Z,22.75
2019-04-25T09:18:17.266Z,22.13
2019-04-25T09:20:47.895Z,22.58
2019-04-25T09:23:18.562Z,23.60
2019-04-25T09:25:49.107Z,21.42
2019-04-25T09:28:26.779Z,20.40
2019-04-25T09:30:57.323Z,20.12
2019-04-25T09:33:27.964Z,21.00
2019-04-25T09:36:00.344Z,22.07
2019-04-25T09:38:39.735Z,20.57
2019-04-25T09:41:10.249Z,21.57
2019-04-25T09:43:40.886Z,21.62
2019-04-25T09:46:13.327Z,21.77
2019-04-25T09:48:48.388Z,21.40
2019-04-25T09:51:20.501Z,22.30
2019-04-25T09:53:54.145Z,20.97
2019-04-25T09:56:27.533Z,24.12
2019-04-25T09:59:09.334Z,22.67
2019-04-25T10:01:40.571Z,23.52
2019-04-25T10:04:11.337Z,23.67
2019-04-25T10:06:58.541Z,22.93
2019-04-25T10:09:35.083Z,23.27
2019-04-25T10:12:05.902Z,22.95
2019-04-25T10:14:54.876Z,25.23
2019-04-25T10:17:25.632Z,24.95
2019-04-25T10:19:56.284Z,25.50
2019-04-25T10:22:28.036Z,23.65
2019-04-25T10:25:00.719Z,24.27
2019-04-25T10:27:31.302Z,24.02
2019-04-25T10:30:15.741Z,24.98
2019-04-25T10:32:35.426Z,24.77
2019-04-25T10:35:07.286Z,28.62
2019-04-25T10:37:39.902Z,25.37
2019-04-25T10:40:13.927Z,23.50
2019-04-25T10:42:47.637Z,24.18
2019-04-25T10:45:23.084Z,23.47
2019-04-25T10:47:52.933Z,24.25
2019-04-25T10:50:24.316Z,26.60
2019-04-25T10:52:54.926Z,24.32
2019-04-25T10:55:25.561Z,23.22
2019-04-25T10:57:56.435Z,23.10
2019-04-25T11:00:30.167Z,23.55
2019-04-25T11:03:03.879Z,22.85
2019-04-25T11:05:34.814Z,23.38
2019-04-25T11:08:05.661Z,22.37
2019-04-25T11:10:36.506Z,22.22
2019-04-25T11:13:07.135Z,22.07
2019-04-25T11:15:39.572Z,22.58
2019-04-25T11:18:11.091Z,22.10
2019-04-25T11:20:43.085Z,22.27
2019-04-25T11:23:14.639Z,22.02
2019-04-25T11:25:46.137Z,23.57
2019-04-25T11:28:17.007Z,22.10
2019-04-25T11:30:48.519Z,23.15
2019-04-25T11:33:19.383Z,23.38
2019-04-25T11:35:56.997Z,22.22
2019-04-25T11:38:53.768Z,23.10
2019-04-25T11:41:27.394Z,21.55
2019-04-25T11:44:00.481Z,21.10
2019-04-25T11:46:34.947Z,21.27
2019-04-25T11:49:07.677Z,21.93
2019-04-25T11:51:40.641Z,22.05
2019-04-25T11:54:13.911Z,24.87
2019-04-25T11:56:48.578Z,23.07
2019-04-25T11:59:23.416Z,23.32
2019-04-25T12:01:56.095Z,24.43
2019-04-25T12:04:26.037Z,22.77
2019-04-25T12:06:56.667Z,23.67
2019-04-25T12:09:27.494Z,22.60
2019-04-25T12:11:58.232Z,24.72
2019-04-25T12:14:28.783Z,23.42
2019-04-25T12:16:59.423Z,24.05
2019-04-25T12:19:35.778Z,25.32
2019-04-25T12:22:04.066Z,22.60
2019-04-25T12:24:34.906Z,22.48
2019-04-25T12:27:05.950Z,22.07
2019-04-25T12:29:38.734Z,21.77
2019-04-25T12:32:09.058Z,22.17
2019-04-25T12:34:39.608Z,20.82
2019-04-25T12:37:19.841Z,19.90
2019-04-25T12:39:50.956Z,20.52
2019-04-25T12:42:21.669Z,21.85
2019-04-25T12:45:09.213Z,22.32
2019-04-25T12:47:50.784Z,21.97
2019-04-25T12:50:23.072Z,21.57
2019-04-25T12:52:55.040Z,21.40
2019-04-25T12:55:26.276Z,22.48
2019-04-25T12:57:57.991Z,21.00
2019-04-25T13:00:30.698Z,20.37
2019-04-25T13:03:01.606Z,20.85
2019-04-25T13:05:32.264Z,21.25
2019-04-25T13:08:04.761Z,22.67
2019-04-25T13:10:36.141Z,21.87
2019-04-25T13:13:06.793Z,23.40
2019-04-25T13:15:37.429Z,31.37
2019-04-25T13:18:09.060Z,27.42
2019-04-25T13:20:39.645Z,24.77
2019-04-25T13:23:10.593Z,23.73
2019-04-25T13:25:41.192Z,23.38
2019-04-25T13:28:29.848Z,24.20
2019-04-25T13:31:18.053Z,23.98
2019-04-25T13:34:04.689Z,22.50
2019-04-25T13:36:36.603Z,23.40
2019-04-25T13:39:09.658Z,22.80
2019-04-25T13:41:43.061Z,25.10
2019-04-25T13:44:15.311Z,25.15
2019-04-25T13:46:45.832Z,25.80
2019-04-25T13:49:17.306Z,24.77
2019-04-25T13:51:47.940Z,23.57
2019-04-25T13:54:18.677Z,22.15
2019-04-25T13:56:49.193Z,23.70
2019-04-25T13:59:19.932Z,21.55
2019-04-25T14:01:51.763Z,21.50
2019-04-25T14:04:25.086Z,20.70
2019-04-25T14:06:55.585Z,20.92
2019-04-25T14:09:30.117Z,20.05
2019-04-25T14:12:00.749Z,21.85
2019-04-25T14:14:32.448Z,20.95
2019-04-25T14:17:08.165Z,19.05
2019-04-25T14:19:44.284Z,17.80
2019-04-25T14:22:14.971Z,18.98
2019-04-25T14:24:45.593Z,20.25
2019-04-25T14:27:16.649Z,18.92
2019-04-25T14:29:47.404Z,19.85
2019-04-25T14:32:18.546Z,20.77
2019-04-25T14:34:49.344Z,21.10
2019-04-25T14:37:19.884Z,21.45
2019-04-25T14:39:50.618Z,20.32
2019-04-25T14:42:22.100Z,21.48
2019-04-25T14:44:53.462Z,20.52
2019-04-25T14:47:24.440Z,19.15
2019-04-25T14:49:55.267Z,19.75
2019-04-25T14:52:25.941Z,18.80
2019-04-25T14:54:58.305Z,20.62
2019-04-25T14:57:30.430Z,20.25
2019-04-25T15:00:04.312Z,21.27
2019-04-25T15:02:37.151Z,19.52
2019-04-25T15:05:08.258Z,19.82
2019-04-25T15:07:40.686Z,19.95
2019-04-25T15:10:12.746Z,21.05
2019-04-25T15:12:43.266Z,21.10
2019-04-25T15:15:14.243Z,21.40
2019-04-25T15:17:48.484Z,21.02
2019-04-25T15:20:19.248Z,21.85
2019-04-25T15:22:49.878Z,22.95
2019-04-25T15:25:20.544Z,21.20
2019-04-25T15:27:51.133Z,26.00
2019-04-25T15:30:24.968Z,25.68
2019-04-25T15:32:55.854Z,26.12
2019-04-25T15:35:28.318Z,26.23
2019-04-25T15:38:18.129Z,26.97
2019-04-25T15:40:50.433Z,25.70
2019-04-25T15:43:22.672Z,25.75
2019-04-25T15:45:54.927Z,26.23
2019-04-25T15:48:28.881Z,25.85
2019-04-25T15:50:59.663Z,26.27
2019-04-25T15:53:30.680Z,25.60
2019-04-25T15:56:01.427Z,27.00
2019-04-25T15:58:51.342Z,27.25
2019-04-25T16:01:22.178Z,26.20
2019-04-25T16:03:52.831Z,23.95
2019-04-25T16:06:23.666Z,23.02
2019-04-25T16:09:06.207Z,24.55
2019-04-25T16:11:37.859Z,23.02
2019-04-25T16:14:08.392Z,23.27
2019-04-25T16:16:39.142Z,23.90
2019-04-25T16:19:10.108Z,25.05
2019-04-25T16:21:42.137Z,24.20
2019-04-25T16:24:12.913Z,24.55
2019-04-25T16:26:43.638Z,22.52
2019-04-25T16:29:15.388Z,22.27
2019-04-25T16:31:46.127Z,21.55
2019-04-25T16:34:16.671Z,22.20
2019-04-25T16:36:47.381Z,22.48
2019-04-25T16:39:21.544Z,23.07
2019-04-25T16:41:52.406Z,21.73
2019-04-25T16:44:23.053Z,22.52
2019-04-25T16:46:53.827Z,20.60
2019-04-25T16:49:24.475Z,20.50
2019-04-25T16:51:55.226Z,19.73
2019-04-25T16:54:25.740Z,19.15
2019-04-25T16:56:56.409Z,19.62
2019-04-25T16:59:29.467Z,21.20
2019-04-25T17:02:00.533Z,20.92
2019-04-25T17:04:31.906Z,20.27
2019-04-25T17:07:02.776Z,24.98
2019-04-25T17:09:34.800Z,21.77
2019-04-25T17:12:06.023Z,22.75
2019-04-25T17:14:38.250Z,22.25
2019-04-25T17:17:13.725Z,18.73
2019-04-25T17:19:49.322Z,18.65
2019-04-25T17:22:20.998Z,17.50
2019-04-25T17:24:52.551Z,18.15
2019-04-25T17:27:23.302Z,16.25
2019-04-25T17:29:55.134Z,15.43
2019-04-25T17:32:27.348Z,15.40
2019-04-25T17:34:59.468Z,15.40
2019-04-25T17:37:40.779Z,13.83
2019-04-25T17:40:13.147Z,13.95
2019-04-25T17:42:44.003Z,13.48
2019-04-25T17:45:16.233Z,12.43
2019-04-25T17:47:54.705Z,12.50
2019-04-25T17:50:23.671Z,13.88
2019-04-25T17:52:54.415Z,12.53
2019-04-25T17:55:24.956Z,12.80
2019-04-25T18:00:45.797Z,13.48
2019-04-25T18:03:16.826Z,13.03
2019-04-25T18:05:47.382Z,13.68
2019-04-25T18:08:18.228Z,14.20
2019-04-25T18:10:48.786Z,12.63
2019-04-25T18:13:19.424Z,11.97
2019-04-25T18:16:08.167Z,10.75
2019-04-25T18:18:43.834Z,11.65
2019-04-25T18:21:14.553Z,11.33
2019-04-25T18:23:54.286Z,10.48
2019-04-25T18:26:26.504Z,10.93
2019-04-25T18:29:04.629Z,10.48
2019-04-25T18:31:35.624Z,11.22
2019-04-25T18:34:08.089Z,11.20
2019-04-25T18:36:49.131Z,10.80
2019-04-25T18:39:21.272Z,11.10
2019-04-25T18:42:11.617Z,10.98
2019-04-25T18:44:42.215Z,10.08
2019-04-25T18:47:12.458Z,10.15
2019-04-25T18:49:44.910Z,11.18
2019-04-25T18:55:14.791Z,10.53
2019-04-25T18:57:48.054Z,10.88
2019-04-25T19:00:23.187Z,9.53
2019-04-25T19:03:22.530Z,10.88
2019-04-25T19:05:48.589Z,12.23
2019-04-25T19:08:25.427Z,9.38
2019-04-25T19:10:55.978Z,9.45
2019-04-25T19:13:26.667Z,9.48
2019-04-25T19:15:57.592Z,7.25
2019-04-25T19:18:28.266Z,7.05
2019-04-25T19:20:59.129Z,7.33
2019-04-25T19:23:29.952Z,6.97
2019-04-25T19:26:00.673Z,7.17
2019-04-25T19:28:31.402Z,7.65
2019-04-25T19:31:01.969Z,8.48
2019-04-25T19:33:35.784Z,7.33
2019-04-25T19:36:05.116Z,7.62
2019-04-25T19:38:35.775Z,7.45
2019-04-25T19:41:11.007Z,7.67
2019-04-25T19:43:58.302Z,7.78
2019-04-25T19:46:40.349Z,7.30
2019-04-25T19:49:13.324Z,7.25
2019-04-25T19:51:43.866Z,6.65
2019-04-25T19:54:14.577Z,7.37
2019-04-25T19:56:47.464Z,6.70
2019-04-25T19:59:18.279Z,7.50
2019-04-25T20:01:50.598Z,7.33
2019-04-25T20:04:40.577Z,7.65
2019-04-25T20:07:32.241Z,6.87
2019-04-25T20:10:09.768Z,7.45
2019-04-25T20:12:42.907Z,7.72
2019-04-25T20:20:43.631Z,7.42
2019-04-25T20:23:15.312Z,7.33
2019-04-25T20:25:46.319Z,7.62
2019-04-25T20:28:17.184Z,7.33
2019-04-25T20:30:48.525Z,7.20
2019-04-25T20:33:20.827Z,7.42
2019-04-25T20:35:51.570Z,7.37
2019-04-25T20:38:23.260Z,7.35
2019-04-25T20:40:55.952Z,7.90
2019-04-25T20:43:26.707Z,7.87
2019-04-25T20:45:57.335Z,8.35
2019-04-25T20:48:28.529Z,7.05
2019-04-25T20:50:59.247Z,7.08
2019-04-25T20:53:29.794Z,8.38
2019-04-25T20:56:00.403Z,8.40
2019-04-25T20:58:30.413Z,14.45
2019-04-25T21:01:02.858Z,7.92
2019-04-25T21:03:33.572Z,7.70
2019-04-25T21:06:15.163Z,7.92
2019-04-25T21:08:45.870Z,7.17
2019-04-25T21:11:16.448Z,8.10
2019-04-25T21:14:04.140Z,7.00
2019-04-25T21:16:54.657Z,7.15
2019-04-25T21:19:26.905Z,7.25
2019-04-25T21:21:57.413Z,7.20
2019-04-25T21:24:28.145Z,7.80
2019-04-25T21:26:58.858Z,7.80
2019-04-25T21:29:29.632Z,7.47
2019-04-25T21:32:00.958Z,7.67
2019-04-25T21:34:33.091Z,7.90
2019-04-25T21:37:05.317Z,7.72
2019-04-25T21:39:41.085Z,8.03
2019-04-25T21:42:16.145Z,8.50
2019-04-25T21:44:47.194Z,7.72
2019-04-25T21:47:17.715Z,9.53
2019-04-25T21:49:48.180Z,9.25
2019-04-25T21:52:18.510Z,9.35
2019-04-25T21:54:49.541Z,8.85
2019-04-25T21:57:32.869Z,9.05
2019-04-25T22:00:07.847Z,9.73
2019-04-25T22:02:36.357Z,10.05
2019-04-25T22:05:08.283Z,10.85
2019-04-25T22:07:40.512Z,10.15
2019-04-25T22:10:12.938Z,9.75
2019-04-25T22:12:43.682Z,9.40
2019-04-25T22:15:15.200Z,11.08
2019-04-25T22:17:46.963Z,10.55
2019-04-25T22:20:17.357Z,10.20
2019-04-25T22:22:47.526Z,10.38
2019-04-25T22:25:18.181Z,10.82
2019-04-25T22:27:53.587Z,10.32
2019-04-25T22:30:24.329Z,10.65
2019-04-25T22:32:57.105Z,9.98
2019-04-25T22:35:29.655Z,11.43
2019-04-25T22:38:00.837Z,11.25
2019-04-25T22:40:31.572Z,15.13
2019-04-25T22:43:03.746Z,26.73
2019-04-25T22:45:35.018Z,14.93
2019-04-25T22:48:06.679Z,12.03
2019-04-25T22:50:37.809Z,12.40
2019-04-25T22:53:08.346Z,11.68
2019-04-25T22:55:40.017Z,12.00
2019-04-25T22:58:10.674Z,12.10
2019-04-25T23:00:41.441Z,12.00
2019-04-25T23:03:18.603Z,12.40
2019-04-25T23:05:51.102Z,12.58
2019-04-25T23:08:24.009Z,12.37
2019-04-25T23:10:54.754Z,13.85
2019-04-25T23:13:25.484Z,14.35
2019-04-25T23:15:56.378Z,14.33
2019-04-25T23:18:28.826Z,14.83
2019-04-25T23:20:59.494Z,14.60
2019-04-25T23:23:32.353Z,14.63
2019-04-25T23:26:22.682Z,15.85
2019-04-25T23:28:55.417Z,17.27
2019-04-25T23:31:36.766Z,18.87
2019-04-25T23:34:19.306Z,18.25
2019-04-25T23:36:50.025Z,19.82
2019-04-25T23:39:20.398Z,19.02
2019-04-25T23:41:50.459Z,19.48
2019-04-25T23:44:21.499Z,21.17
2019-04-25T23:46:52.562Z,24.72
2019-04-25T23:49:23.279Z,25.43
2019-04-25T23:51:55.515Z,23.75
2019-04-25T23:54:26.258Z,23.50
2019-04-25T23:56:57.298Z,23.80
2019-04-25T23:59:28.114Z,25.68
